sensor_id;sensor_type;location;lat;lon;timestamp;temperature;humidity
15821;DHT22;8011;51.650;7.240;2022-11-06T00:00:40;9.80;99.90
15821;DHT22;8011;51.650;7.240;2022-11-06T00:03:06;9.80;99.90
15821;DHT22;8011;51.650;7.240;2022-11-06T00:05:32;9.80;99.90
15821;DHT22;8011;51.650;7.240;2022-11-06T00:08:38;9.70;99.90
15821;DHT22;8011;51.650;7.240;2022-11-06T00:11:15;9.70;99.90
15821;DHT22;8011;51.650;7.240;2022-11-06T00:13:41;9.70;99.90
15821;DHT22;8011;51.650;7.240;2022-11-06T00:16:09;9.70;99.90
15821;DHT22;8011;51.650;7.240;2022-11-06T00:18:35;9.70;99.90
15821;DHT22;8011;51.650;7.240;2022-11-06T00:21:13;9.70;99.90
15821;DHT22;8011;51.650;7.240;2022-11-06T00:23:40;9.70;99.90
15821;DHT22;8011;51.650;7.240;2022-11-06T00:26:11;9.70;99.90
15821;DHT22;8011;51.650;7.240;2022-11-06T00:28:37;9.70;99.90
15821;DHT22;8011;51.650;7.240;2022-11-06T00:31:07;9.70;99.90
15821;DHT22;8011;51.650;7.240;2022-11-06T00:33:33;9.70;99.90
15821;DHT22;8011;51.650;7.240;2022-11-06T00:36:02;9.60;99.90
15821;DHT22;8011;51.650;7.240;2022-11-06T00:38:28;9.60;99.90
15821;DHT22;8011;51.650;7.240;2022-11-06T00:40:53;9.60;99.90
15821;DHT22;8011;51.650;7.240;2022-11-06T00:43:19;9.60;99.90
15821;DHT22;8011;51.650;7.240;2022-11-06T00:45:44;9.60;99.90
15821;DHT22;8011;51.650;7.240;2022-11-06T00:48:10;9.60;99.90
15821;DHT22;8011;51.650;7.240;2022-11-06T00:50:36;9.60;99.90
15821;DHT22;8011;51.650;7.240;2022-11-06T00:53:02;9.60;99.90
15821;DHT22;8011;51.650;7.240;2022-11-06T00:55:27;9.50;99.90
15821;DHT22;8011;51.650;7.240;2022-11-06T00:57:53;9.50;99.90
15821;DHT22;8011;51.650;7.240;2022-11-06T04:01:36;9.00;99.90
15821;DHT22;8011;51.650;7.240;2022-11-06T04:07:38;9.00;99.90
15821;DHT22;8011;51.650;7.240;2022-11-06T04:09:48;9.00;99.90
15821;DHT22;8011;51.650;7.240;2022-11-06T04:12:35;9.00;99.90
15821;DHT22;8011;51.650;7.240;2022-11-06T04:15:46;9.00;99.90
15821;DHT22;8011;51.650;7.240;2022-11-06T04:18:17;9.00;99.90
15821;DHT22;8011;51.650;7.240;2022-11-06T04:21:35;9.00;99.90
15821;DHT22;8011;51.650;7.240;2022-11-06T04:24:06;9.10;99.90
15821;DHT22;8011;51.650;7.240;2022-11-06T04:27:20;9.00;99.90
15821;DHT22;8011;51.650;7.240;2022-11-06T04:30:06;9.10;99.90
15821;DHT22;8011;51.650;7.240;2022-11-06T04:41:12;9.10;99.90
15821;DHT22;8011;51.650;7.240;2022-11-06T04:46:21;9.10;99.90
15821;DHT22;8011;51.650;7.240;2022-11-06T04:48:50;9.10;99.90
15821;DHT22;8011;51.650;7.240;2022-11-06T04:51:20;9.10;99.90
15821;DHT22;8011;51.650;7.240;2022-11-06T04:53:48;9.10;99.90
15821;DHT22;8011;51.650;7.240;2022-11-06T04:56:31;9.10;99.90
15821;DHT22;8011;51.650;7.240;2022-11-06T04:58:57;9.10;99.90
15821;DHT22;8011;51.650;7.240;2022-11-06T05:01:23;9.10;99.90
15821;DHT22;8011;51.650;7.240;2022-11-06T05:03:49;9.10;99.90
15821;DHT22;8011;51.650;7.240;2022-11-06T05:06:14;9.10;99.90
15821;DHT22;8011;51.650;7.240;2022-11-06T05:08:44;9.10;99.90
15821;DHT22;8011;51.650;7.240;2022-11-06T05:11:10;9.10;99.90
15821;DHT22;8011;51.650;7.240;2022-11-06T05:13:36;9.10;99.90
15821;DHT22;8011;51.650;7.240;2022-11-06T05:16:03;9.10;99.90
15821;DHT22;8011;51.650;7.240;2022-11-06T05:18:29;9.10;99.90
15821;DHT22;8011;51.650;7.240;2022-11-06T05:21:04;9.10;99.90
15821;DHT22;8011;51.650;7.240;2022-11-06T05:23:48;9.10;99.90
15821;DHT22;8011;51.650;7.240;2022-11-06T05:26:14;9.10;99.90
15821;DHT22;8011;51.650;7.240;2022-11-06T05:28:40;9.10;99.90
15821;DHT22;8011;51.650;7.240;2022-11-06T05:31:08;9.10;99.90
15821;DHT22;8011;51.650;7.240;2022-11-06T05:33:33;9.10;99.90
15821;DHT22;8011;51.650;7.240;2022-11-06T05:36:04;9.10;99.90
15821;DHT22;8011;51.650;7.240;2022-11-06T05:38:33;9.10;99.90
15821;DHT22;8011;51.650;7.240;2022-11-06T05:40:59;9.10;99.90
15821;DHT22;8011;51.650;7.240;2022-11-06T05:43:27;9.10;99.90
15821;DHT22;8011;51.650;7.240;2022-11-06T05:45:53;9.10;99.90
15821;DHT22;8011;51.650;7.240;2022-11-06T05:48:22;9.20;99.90
15821;DHT22;8011;51.650;7.240;2022-11-06T05:50:48;9.10;99.90
15821;DHT22;8011;51.650;7.240;2022-11-06T05:53:15;9.10;99.90
15821;DHT22;8011;51.650;7.240;2022-11-06T05:55:46;9.10;99.90
15821;DHT22;8011;51.650;7.240;2022-11-06T05:58:13;9.10;99.90
15821;DHT22;8011;51.650;7.240;2022-11-06T06:00:39;9.10;99.90
15821;DHT22;8011;51.650;7.240;2022-11-06T06:03:04;9.10;99.90
15821;DHT22;8011;51.650;7.240;2022-11-06T06:05:30;9.10;99.90
15821;DHT22;8011;51.650;7.240;2022-11-06T06:07:56;9.10;99.90
15821;DHT22;8011;51.650;7.240;2022-11-06T06:10:24;9.10;99.90
15821;DHT22;8011;51.650;7.240;2022-11-06T06:12:50;9.00;99.90
15821;DHT22;8011;51.650;7.240;2022-11-06T06:15:16;9.00;99.90
15821;DHT22;8011;51.650;7.240;2022-11-06T06:17:42;9.00;99.90
15821;DHT22;8011;51.650;7.240;2022-11-06T06:20:10;9.00;99.90
15821;DHT22;8011;51.650;7.240;2022-11-06T06:22:37;9.00;99.90
15821;DHT22;8011;51.650;7.240;2022-11-06T06:25:06;9.00;99.90
15821;DHT22;8011;51.650;7.240;2022-11-06T06:27:32;8.90;99.90
15821;DHT22;8011;51.650;7.240;2022-11-06T06:29:58;8.90;99.90
15821;DHT22;8011;51.650;7.240;2022-11-06T06:32:27;8.90;99.90
15821;DHT22;8011;51.650;7.240;2022-11-06T06:34:52;8.90;99.90
15821;DHT22;8011;51.650;7.240;2022-11-06T06:37:18;8.90;99.90
15821;DHT22;8011;51.650;7.240;2022-11-06T06:39:47;8.90;99.90
15821;DHT22;8011;51.650;7.240;2022-11-06T06:42:12;8.90;99.90
15821;DHT22;8011;51.650;7.240;2022-11-06T06:44:38;8.90;99.90
15821;DHT22;8011;51.650;7.240;2022-11-06T06:47:04;8.80;99.90
15821;DHT22;8011;51.650;7.240;2022-11-06T06:49:29;8.90;99.90
15821;DHT22;8011;51.650;7.240;2022-11-06T06:51:55;8.90;99.90
15821;DHT22;8011;51.650;7.240;2022-11-06T06:54:21;8.90;99.90
15821;DHT22;8011;51.650;7.240;2022-11-06T06:56:47;8.90;99.90
15821;DHT22;8011;51.650;7.240;2022-11-06T06:59:13;8.80;99.90
15821;DHT22;8011;51.650;7.240;2022-11-06T07:01:38;8.80;99.90
15821;DHT22;8011;51.650;7.240;2022-11-06T07:04:04;8.80;99.90
15821;DHT22;8011;51.650;7.240;2022-11-06T07:06:30;8.80;99.90
15821;DHT22;8011;51.650;7.240;2022-11-06T07:08:56;8.80;99.90
15821;DHT22;8011;51.650;7.240;2022-11-06T07:11:22;8.80;99.90
15821;DHT22;8011;51.650;7.240;2022-11-06T07:13:48;8.80;99.90
15821;DHT22;8011;51.650;7.240;2022-11-06T07:16:13;8.80;99.90
15821;DHT22;8011;51.650;7.240;2022-11-06T07:18:40;8.80;99.90
15821;DHT22;8011;51.650;7.240;2022-11-06T07:21:07;8.80;99.90
15821;DHT22;8011;51.650;7.240;2022-11-06T07:23:34;8.80;99.90
15821;DHT22;8011;51.650;7.240;2022-11-06T07:26:00;8.90;99.90
15821;DHT22;8011;51.650;7.240;2022-11-06T07:28:26;8.90;99.90
15821;DHT22;8011;51.650;7.240;2022-11-06T07:30:58;8.90;99.90
15821;DHT22;8011;51.650;7.240;2022-11-06T07:33:24;8.90;99.90
15821;DHT22;8011;51.650;7.240;2022-11-06T07:35:50;8.90;99.90
15821;DHT22;8011;51.650;7.240;2022-11-06T07:38:16;8.90;99.90
15821;DHT22;8011;51.650;7.240;2022-11-06T07:40:42;8.90;99.90
15821;DHT22;8011;51.650;7.240;2022-11-06T07:43:11;8.90;99.90
15821;DHT22;8011;51.650;7.240;2022-11-06T07:45:37;8.90;99.90
15821;DHT22;8011;51.650;7.240;2022-11-06T07:48:04;8.90;99.90
15821;DHT22;8011;51.650;7.240;2022-11-06T07:50:31;9.00;99.90
15821;DHT22;8011;51.650;7.240;2022-11-06T07:52:57;9.00;99.90
15821;DHT22;8011;51.650;7.240;2022-11-06T07:55:22;9.10;99.90
15821;DHT22;8011;51.650;7.240;2022-11-06T07:57:48;9.10;99.90
15821;DHT22;8011;51.650;7.240;2022-11-06T08:00:14;9.10;99.90
15821;DHT22;8011;51.650;7.240;2022-11-06T08:02:40;9.10;99.90
15821;DHT22;8011;51.650;7.240;2022-11-06T08:05:06;9.10;99.90
15821;DHT22;8011;51.650;7.240;2022-11-06T08:07:35;9.20;99.90
15821;DHT22;8011;51.650;7.240;2022-11-06T08:10:01;9.20;99.90
15821;DHT22;8011;51.650;7.240;2022-11-06T08:12:26;9.30;99.90
15821;DHT22;8011;51.650;7.240;2022-11-06T08:14:52;9.30;99.90
15821;DHT22;8011;51.650;7.240;2022-11-06T08:17:18;9.40;99.90
15821;DHT22;8011;51.650;7.240;2022-11-06T08:19:44;9.30;99.90
15821;DHT22;8011;51.650;7.240;2022-11-06T08:22:12;9.40;99.90
15821;DHT22;8011;51.650;7.240;2022-11-06T08:24:38;9.40;99.90
15821;DHT22;8011;51.650;7.240;2022-11-06T08:27:03;9.40;99.90
15821;DHT22;8011;51.650;7.240;2022-11-06T08:29:35;9.50;99.90
15821;DHT22;8011;51.650;7.240;2022-11-06T08:32:01;9.50;99.90
15821;DHT22;8011;51.650;7.240;2022-11-06T08:34:27;9.60;99.90
15821;DHT22;8011;51.650;7.240;2022-11-06T08:36:52;9.60;99.90
15821;DHT22;8011;51.650;7.240;2022-11-06T08:39:21;9.70;99.90
15821;DHT22;8011;51.650;7.240;2022-11-06T08:41:46;9.70;99.90
15821;DHT22;8011;51.650;7.240;2022-11-06T08:44:12;9.80;99.90
15821;DHT22;8011;51.650;7.240;2022-11-06T08:46:38;9.80;99.90
15821;DHT22;8011;51.650;7.240;2022-11-06T08:49:06;9.80;99.90
15821;DHT22;8011;51.650;7.240;2022-11-06T08:51:32;9.90;99.90
15821;DHT22;8011;51.650;7.240;2022-11-06T08:53:57;9.90;99.90
15821;DHT22;8011;51.650;7.240;2022-11-06T08:56:23;10.00;99.90
15821;DHT22;8011;51.650;7.240;2022-11-06T08:58:49;10.00;99.90
15821;DHT22;8011;51.650;7.240;2022-11-06T09:01:15;10.00;99.90
15821;DHT22;8011;51.650;7.240;2022-11-06T09:03:40;10.10;99.90
15821;DHT22;8011;51.650;7.240;2022-11-06T09:06:06;10.10;99.90
15821;DHT22;8011;51.650;7.240;2022-11-06T09:08:35;10.20;99.90
15821;DHT22;8011;51.650;7.240;2022-11-06T09:11:04;10.20;99.90
15821;DHT22;8011;51.650;7.240;2022-11-06T09:13:32;10.30;99.90
15821;DHT22;8011;51.650;7.240;2022-11-06T09:16:05;10.30;99.90
15821;DHT22;8011;51.650;7.240;2022-11-06T09:18:31;10.40;99.90
15821;DHT22;8011;51.650;7.240;2022-11-06T09:20:57;10.40;99.90
15821;DHT22;8011;51.650;7.240;2022-11-06T09:23:23;10.50;99.90
15821;DHT22;8011;51.650;7.240;2022-11-06T09:25:52;10.60;99.90
15821;DHT22;8011;51.650;7.240;2022-11-06T09:28:17;10.60;99.90
15821;DHT22;8011;51.650;7.240;2022-11-06T09:30:43;10.70;99.90
15821;DHT22;8011;51.650;7.240;2022-11-06T09:33:09;10.80;99.90
15821;DHT22;8011;51.650;7.240;2022-11-06T09:35:38;10.80;99.90
15821;DHT22;8011;51.650;7.240;2022-11-06T09:38:10;10.90;99.90
15821;DHT22;8011;51.650;7.240;2022-11-06T09:40:54;10.90;99.90
15821;DHT22;8011;51.650;7.240;2022-11-06T09:43:44;11.00;99.90
15821;DHT22;8011;51.650;7.240;2022-11-06T09:46:30;11.00;99.90
15821;DHT22;8011;51.650;7.240;2022-11-06T09:49:17;11.10;99.90
15821;DHT22;8011;51.650;7.240;2022-11-06T09:51:46;11.10;99.90
15821;DHT22;8011;51.650;7.240;2022-11-06T09:54:18;11.10;99.90
15821;DHT22;8011;51.650;7.240;2022-11-06T09:56:47;11.10;99.90
15821;DHT22;8011;51.650;7.240;2022-11-06T09:59:16;11.10;99.90
15821;DHT22;8011;51.650;7.240;2022-11-06T10:04:24;11.30;99.90
15821;DHT22;8011;51.650;7.240;2022-11-06T10:06:52;11.30;99.90
15821;DHT22;8011;51.650;7.240;2022-11-06T10:09:18;11.30;99.90
15821;DHT22;8011;51.650;7.240;2022-11-06T10:12:10;11.40;99.90
15821;DHT22;8011;51.650;7.240;2022-11-06T10:20:24;11.60;99.90
15821;DHT22;8011;51.650;7.240;2022-11-06T10:23:09;11.60;99.90
15821;DHT22;8011;51.650;7.240;2022-11-06T10:34:00;11.70;99.90
15821;DHT22;8011;51.650;7.240;2022-11-06T10:36:54;11.70;99.90
15821;DHT22;8011;51.650;7.240;2022-11-06T10:39:28;11.80;99.90
15821;DHT22;8011;51.650;7.240;2022-11-06T10:42:06;11.80;99.90
15821;DHT22;8011;51.650;7.240;2022-11-06T10:47:19;11.80;99.90
15821;DHT22;8011;51.650;7.240;2022-11-06T10:49:49;11.90;99.90
15821;DHT22;8011;51.650;7.240;2022-11-06T10:59:57;12.00;99.90
15821;DHT22;8011;51.650;7.240;2022-11-06T11:02:38;12.10;99.90
15821;DHT22;8011;51.650;7.240;2022-11-06T11:05:19;12.10;99.90
15821;DHT22;8011;51.650;7.240;2022-11-06T11:07:48;12.20;99.90
15821;DHT22;8011;51.650;7.240;2022-11-06T11:12:53;12.10;99.90
15821;DHT22;8011;51.650;7.240;2022-11-06T11:15:26;12.10;99.90
15821;DHT22;8011;51.650;7.240;2022-11-06T11:20:45;12.10;99.90
15821;DHT22;8011;51.650;7.240;2022-11-06T11:25:53;12.10;99.90
15821;DHT22;8011;51.650;7.240;2022-11-06T11:28:29;12.20;99.90
15821;DHT22;8011;51.650;7.240;2022-11-06T11:31:11;12.20;99.90
15821;DHT22;8011;51.650;7.240;2022-11-06T11:33:39;12.30;99.90
15821;DHT22;8011;51.650;7.240;2022-11-06T11:36:07;12.30;99.90
15821;DHT22;8011;51.650;7.240;2022-11-06T11:38:36;12.30;99.90
15821;DHT22;8011;51.650;7.240;2022-11-06T11:44:18;12.30;99.90
15821;DHT22;8011;51.650;7.240;2022-11-06T11:46:52;12.30;99.90
15821;DHT22;8011;51.650;7.240;2022-11-06T11:49:26;12.30;99.90
15821;DHT22;8011;51.650;7.240;2022-11-06T11:51:53;12.30;99.90
15821;DHT22;8011;51.650;7.240;2022-11-06T11:54:20;12.40;99.90
15821;DHT22;8011;51.650;7.240;2022-11-06T11:57:06;12.40;99.90
15821;DHT22;8011;51.650;7.240;2022-11-06T12:00:00;12.40;99.90
15821;DHT22;8011;51.650;7.240;2022-11-06T12:02:33;12.40;99.90
15821;DHT22;8011;51.650;7.240;2022-11-06T12:05:11;12.40;99.90
15821;DHT22;8011;51.650;7.240;2022-11-06T12:07:42;12.50;99.90
15821;DHT22;8011;51.650;7.240;2022-11-06T12:10:31;12.50;99.90
15821;DHT22;8011;51.650;7.240;2022-11-06T12:12:59;12.50;99.90
15821;DHT22;8011;51.650;7.240;2022-11-06T12:18:22;12.50;99.90
15821;DHT22;8011;51.650;7.240;2022-11-06T12:21:02;12.60;99.90
15821;DHT22;8011;51.650;7.240;2022-11-06T12:26:37;12.60;99.90
15821;DHT22;8011;51.650;7.240;2022-11-06T12:29:16;12.70;99.90
15821;DHT22;8011;51.650;7.240;2022-11-06T12:34:54;12.70;99.90
15821;DHT22;8011;51.650;7.240;2022-11-06T12:37:27;12.70;99.90
15821;DHT22;8011;51.650;7.240;2022-11-06T12:40:19;12.80;99.90
15821;DHT22;8011;51.650;7.240;2022-11-06T12:45:55;12.80;99.90
15821;DHT22;8011;51.650;7.240;2022-11-06T13:05:04;12.70;99.90
15821;DHT22;8011;51.650;7.240;2022-11-06T13:08:11;12.80;99.90
15821;DHT22;8011;51.650;7.240;2022-11-06T13:27:07;12.70;99.90
15821;DHT22;8011;51.650;7.240;2022-11-06T13:29:36;12.70;99.90
15821;DHT22;8011;51.650;7.240;2022-11-06T13:32:07;12.70;99.90
15821;DHT22;8011;51.650;7.240;2022-11-06T13:34:37;12.60;99.90
15821;DHT22;8011;51.650;7.240;2022-11-06T13:37:10;12.60;99.90
15821;DHT22;8011;51.650;7.240;2022-11-06T13:39:45;12.60;99.90
15821;DHT22;8011;51.650;7.240;2022-11-06T13:42:20;12.60;99.90
15821;DHT22;8011;51.650;7.240;2022-11-06T13:44:47;12.60;99.90
15821;DHT22;8011;51.650;7.240;2022-11-06T13:47:21;12.50;99.90
15821;DHT22;8011;51.650;7.240;2022-11-06T13:52:39;12.50;99.90
15821;DHT22;8011;51.650;7.240;2022-11-06T14:06:39;12.50;99.90
15821;DHT22;8011;51.650;7.240;2022-11-06T14:09:09;12.50;99.90
15821;DHT22;8011;51.650;7.240;2022-11-06T14:11:40;12.50;99.90
15821;DHT22;8011;51.650;7.240;2022-11-06T14:19:39;12.50;99.90
15821;DHT22;8011;51.650;7.240;2022-11-06T14:24:38;12.50;99.90
15821;DHT22;8011;51.650;7.240;2022-11-06T14:27:15;12.50;99.90
15821;DHT22;8011;51.650;7.240;2022-11-06T14:32:38;12.40;99.90
15821;DHT22;8011;51.650;7.240;2022-11-06T14:40:34;12.40;99.90
15821;DHT22;8011;51.650;7.240;2022-11-06T14:46:02;12.50;99.90
15821;DHT22;8011;51.650;7.240;2022-11-06T14:48:30;12.40;99.90
15821;DHT22;8011;51.650;7.240;2022-11-06T14:50:57;12.40;99.90
15821;DHT22;8011;51.650;7.240;2022-11-06T14:53:30;12.40;99.90
15821;DHT22;8011;51.650;7.240;2022-11-06T14:56:00;12.30;99.90
15821;DHT22;8011;51.650;7.240;2022-11-06T14:58:32;12.40;99.90
15821;DHT22;8011;51.650;7.240;2022-11-06T15:01:14;12.30;99.90
15821;DHT22;8011;51.650;7.240;2022-11-06T15:03:55;12.30;99.90
15821;DHT22;8011;51.650;7.240;2022-11-06T15:08:59;12.30;99.90
15821;DHT22;8011;51.650;7.240;2022-11-06T15:16:28;12.30;99.90
15821;DHT22;8011;51.650;7.240;2022-11-06T15:19:02;12.30;99.90
15821;DHT22;8011;51.650;7.240;2022-11-06T15:24:37;12.20;99.90
15821;DHT22;8011;51.650;7.240;2022-11-06T15:27:14;12.30;99.90
15821;DHT22;8011;51.650;7.240;2022-11-06T15:29:44;12.20;99.90
15821;DHT22;8011;51.650;7.240;2022-11-06T15:32:14;12.30;99.90
15821;DHT22;8011;51.650;7.240;2022-11-06T15:37:20;12.20;99.90
15821;DHT22;8011;51.650;7.240;2022-11-06T15:39:54;12.20;99.90
15821;DHT22;8011;51.650;7.240;2022-11-06T15:42:22;12.20;99.90
15821;DHT22;8011;51.650;7.240;2022-11-06T15:44:49;12.20;99.90
15821;DHT22;8011;51.650;7.240;2022-11-06T15:47:26;12.20;99.90
15821;DHT22;8011;51.650;7.240;2022-11-06T15:50:31;12.20;99.90
15821;DHT22;8011;51.650;7.240;2022-11-06T15:53:18;12.20;99.90
15821;DHT22;8011;51.650;7.240;2022-11-06T15:56:00;12.20;99.90
15821;DHT22;8011;51.650;7.240;2022-11-06T15:58:30;12.10;99.90
15821;DHT22;8011;51.650;7.240;2022-11-06T16:00:57;12.20;99.90
15821;DHT22;8011;51.650;7.240;2022-11-06T16:03:26;12.20;99.90
15821;DHT22;8011;51.650;7.240;2022-11-06T16:05:53;12.20;99.90
15821;DHT22;8011;51.650;7.240;2022-11-06T16:08:22;12.10;99.90
15821;DHT22;8011;51.650;7.240;2022-11-06T16:10:49;12.10;99.90
15821;DHT22;8011;51.650;7.240;2022-11-06T16:13:17;12.00;99.90
15821;DHT22;8011;51.650;7.240;2022-11-06T16:21:19;11.70;99.90
15821;DHT22;8011;51.650;7.240;2022-11-06T16:26:20;11.50;99.90
15821;DHT22;8011;51.650;7.240;2022-11-06T16:28:49;11.40;99.90
15821;DHT22;8011;51.650;7.240;2022-11-06T16:31:19;11.30;99.90
15821;DHT22;8011;51.650;7.240;2022-11-06T16:36:22;11.30;99.90
15821;DHT22;8011;51.650;7.240;2022-11-06T16:38:48;11.30;99.90
15821;DHT22;8011;51.650;7.240;2022-11-06T16:41:15;11.20;99.90
15821;DHT22;8011;51.650;7.240;2022-11-06T16:44:21;11.20;99.90
15821;DHT22;8011;51.650;7.240;2022-11-06T16:49:42;11.10;99.90
15821;DHT22;8011;51.650;7.240;2022-11-06T16:52:28;11.10;99.90
15821;DHT22;8011;51.650;7.240;2022-11-06T16:57:36;11.00;99.90
15821;DHT22;8011;51.650;7.240;2022-11-06T17:03:02;10.90;99.90
15821;DHT22;8011;51.650;7.240;2022-11-06T17:05:35;10.80;99.90
15821;DHT22;8011;51.650;7.240;2022-11-06T17:10:44;10.80;99.90
15821;DHT22;8011;51.650;7.240;2022-11-06T17:15:38;10.80;99.90
15821;DHT22;8011;51.650;7.240;2022-11-06T17:18:04;10.80;99.90
15821;DHT22;8011;51.650;7.240;2022-11-06T17:20:33;10.80;99.90
15821;DHT22;8011;51.650;7.240;2022-11-06T17:22:59;10.70;99.90
15821;DHT22;8011;51.650;7.240;2022-11-06T17:25:25;10.70;99.90
15821;DHT22;8011;51.650;7.240;2022-11-06T17:27:50;10.70;99.90
15821;DHT22;8011;51.650;7.240;2022-11-06T17:30:16;10.70;99.90
15821;DHT22;8011;51.650;7.240;2022-11-06T17:32:44;10.60;99.90
15821;DHT22;8011;51.650;7.240;2022-11-06T17:35:10;10.60;99.90
15821;DHT22;8011;51.650;7.240;2022-11-06T17:37:36;10.60;99.90
15821;DHT22;8011;51.650;7.240;2022-11-06T17:40:08;10.60;99.90
15821;DHT22;8011;51.650;7.240;2022-11-06T17:42:34;10.70;99.90
15821;DHT22;8011;51.650;7.240;2022-11-06T17:44:59;10.60;99.90
15821;DHT22;8011;51.650;7.240;2022-11-06T17:47:25;10.60;99.90
15821;DHT22;8011;51.650;7.240;2022-11-06T17:49:54;10.60;99.90
15821;DHT22;8011;51.650;7.240;2022-11-06T17:52:29;10.60;99.90
15821;DHT22;8011;51.650;7.240;2022-11-06T17:54:55;10.60;99.90
15821;DHT22;8011;51.650;7.240;2022-11-06T17:57:23;10.60;99.90
15821;DHT22;8011;51.650;7.240;2022-11-06T17:59:49;10.60;99.90
15821;DHT22;8011;51.650;7.240;2022-11-06T18:02:21;10.50;99.90
15821;DHT22;8011;51.650;7.240;2022-11-06T18:04:47;10.50;99.90
15821;DHT22;8011;51.650;7.240;2022-11-06T18:07:16;10.50;99.90
15821;DHT22;8011;51.650;7.240;2022-11-06T18:09:50;10.50;99.90
15821;DHT22;8011;51.650;7.240;2022-11-06T18:12:16;10.50;99.90
15821;DHT22;8011;51.650;7.240;2022-11-06T18:14:46;10.40;99.90
15821;DHT22;8011;51.650;7.240;2022-11-06T18:17:14;10.40;99.90
15821;DHT22;8011;51.650;7.240;2022-11-06T18:19:40;10.40;99.90
15821;DHT22;8011;51.650;7.240;2022-11-06T18:22:06;10.40;99.90
15821;DHT22;8011;51.650;7.240;2022-11-06T18:24:31;10.40;99.90
15821;DHT22;8011;51.650;7.240;2022-11-06T18:27:00;10.40;99.90
15821;DHT22;8011;51.650;7.240;2022-11-06T18:29:26;10.40;99.90
15821;DHT22;8011;51.650;7.240;2022-11-06T18:31:51;10.40;99.90
15821;DHT22;8011;51.650;7.240;2022-11-06T18:34:23;10.40;99.90
15821;DHT22;8011;51.650;7.240;2022-11-06T18:36:49;10.40;99.90
15821;DHT22;8011;51.650;7.240;2022-11-06T18:39:16;10.40;99.90
15821;DHT22;8011;51.650;7.240;2022-11-06T18:41:42;10.40;99.90
15821;DHT22;8011;51.650;7.240;2022-11-06T18:44:07;10.40;99.90
15821;DHT22;8011;51.650;7.240;2022-11-06T18:46:33;10.40;99.90
15821;DHT22;8011;51.650;7.240;2022-11-06T18:48:59;10.40;99.90
15821;DHT22;8011;51.650;7.240;2022-11-06T18:51:28;10.50;99.90
15821;DHT22;8011;51.650;7.240;2022-11-06T18:54:01;10.50;99.90
15821;DHT22;8011;51.650;7.240;2022-11-06T18:56:31;10.50;99.90
15821;DHT22;8011;51.650;7.240;2022-11-06T18:58:58;10.50;99.90
15821;DHT22;8011;51.650;7.240;2022-11-06T19:01:24;10.50;99.90
15821;DHT22;8011;51.650;7.240;2022-11-06T19:03:50;10.50;99.90
15821;DHT22;8011;51.650;7.240;2022-11-06T19:06:18;10.50;99.90
15821;DHT22;8011;51.650;7.240;2022-11-06T19:08:44;10.50;99.90
15821;DHT22;8011;51.650;7.240;2022-11-06T19:11:12;10.50;99.90
15821;DHT22;8011;51.650;7.240;2022-11-06T19:13:39;10.50;99.90
15821;DHT22;8011;51.650;7.240;2022-11-06T19:16:06;10.50;99.90
15821;DHT22;8011;51.650;7.240;2022-11-06T19:18:35;10.40;99.90
15821;DHT22;8011;51.650;7.240;2022-11-06T19:21:06;10.50;99.90
15821;DHT22;8011;51.650;7.240;2022-11-06T19:23:35;10.50;99.90
15821;DHT22;8011;51.650;7.240;2022-11-06T19:26:07;10.50;99.90
15821;DHT22;8011;51.650;7.240;2022-11-06T19:28:39;10.50;99.90
15821;DHT22;8011;51.650;7.240;2022-11-06T19:31:05;10.40;99.90
15821;DHT22;8011;51.650;7.240;2022-11-06T19:33:31;10.40;99.90
15821;DHT22;8011;51.650;7.240;2022-11-06T19:36:04;10.50;99.90
15821;DHT22;8011;51.650;7.240;2022-11-06T19:38:37;10.50;99.90
15821;DHT22;8011;51.650;7.240;2022-11-06T19:41:06;10.40;99.90
15821;DHT22;8011;51.650;7.240;2022-11-06T19:43:41;10.50;99.90
15821;DHT22;8011;51.650;7.240;2022-11-06T19:46:11;10.50;99.90
15821;DHT22;8011;51.650;7.240;2022-11-06T19:48:40;10.50;99.90
15821;DHT22;8011;51.650;7.240;2022-11-06T19:51:18;10.50;99.90
15821;DHT22;8011;51.650;7.240;2022-11-06T19:53:43;10.50;99.90
15821;DHT22;8011;51.650;7.240;2022-11-06T19:56:13;10.60;99.90
15821;DHT22;8011;51.650;7.240;2022-11-06T19:58:41;10.60;99.90
15821;DHT22;8011;51.650;7.240;2022-11-06T20:01:08;10.60;99.90
15821;DHT22;8011;51.650;7.240;2022-11-06T20:03:35;10.50;99.90
15821;DHT22;8011;51.650;7.240;2022-11-06T20:06:02;10.50;99.90
15821;DHT22;8011;51.650;7.240;2022-11-06T20:08:28;10.60;99.90
15821;DHT22;8011;51.650;7.240;2022-11-06T20:11:06;10.60;99.90
15821;DHT22;8011;51.650;7.240;2022-11-06T20:13:31;10.50;99.90
15821;DHT22;8011;51.650;7.240;2022-11-06T20:16:06;10.60;99.90
15821;DHT22;8011;51.650;7.240;2022-11-06T20:18:32;10.60;99.90
15821;DHT22;8011;51.650;7.240;2022-11-06T20:21:08;10.60;99.90
15821;DHT22;8011;51.650;7.240;2022-11-06T20:23:35;10.60;99.90
15821;DHT22;8011;51.650;7.240;2022-11-06T20:26:04;10.60;99.90
15821;DHT22;8011;51.650;7.240;2022-11-06T20:28:45;10.60;99.90
15821;DHT22;8011;51.650;7.240;2022-11-06T20:31:12;10.60;99.90
15821;DHT22;8011;51.650;7.240;2022-11-06T20:33:38;10.70;99.90
15821;DHT22;8011;51.650;7.240;2022-11-06T20:36:12;10.70;99.90
15821;DHT22;8011;51.650;7.240;2022-11-06T20:38:38;10.70;99.90
15821;DHT22;8011;51.650;7.240;2022-11-06T20:41:04;10.70;99.90
15821;DHT22;8011;51.650;7.240;2022-11-06T20:43:30;10.70;99.90
15821;DHT22;8011;51.650;7.240;2022-11-06T20:46:01;10.70;99.90
15821;DHT22;8011;51.650;7.240;2022-11-06T20:48:27;10.60;99.90
15821;DHT22;8011;51.650;7.240;2022-11-06T20:51:03;10.70;99.90
15821;DHT22;8011;51.650;7.240;2022-11-06T20:53:30;10.70;99.90
15821;DHT22;8011;51.650;7.240;2022-11-06T20:55:57;10.70;99.90
15821;DHT22;8011;51.650;7.240;2022-11-06T20:58:24;10.70;99.90
15821;DHT22;8011;51.650;7.240;2022-11-06T21:00:50;10.70;99.90
15821;DHT22;8011;51.650;7.240;2022-11-06T21:03:16;10.70;99.90
15821;DHT22;8011;51.650;7.240;2022-11-06T21:05:41;10.70;99.90
15821;DHT22;8011;51.650;7.240;2022-11-06T21:08:07;10.70;99.90
15821;DHT22;8011;51.650;7.240;2022-11-06T21:10:33;10.70;99.90
15821;DHT22;8011;51.650;7.240;2022-11-06T21:12:59;10.70;99.90
15821;DHT22;8011;51.650;7.240;2022-11-06T21:15:24;10.70;99.90
15821;DHT22;8011;51.650;7.240;2022-11-06T21:17:50;10.70;99.90
15821;DHT22;8011;51.650;7.240;2022-11-06T21:20:16;10.70;99.90
15821;DHT22;8011;51.650;7.240;2022-11-06T21:22:42;10.70;99.90
15821;DHT22;8011;51.650;7.240;2022-11-06T21:25:11;10.70;99.90
15821;DHT22;8011;51.650;7.240;2022-11-06T21:27:37;10.80;99.90
15821;DHT22;8011;51.650;7.240;2022-11-06T21:30:03;10.80;99.90
15821;DHT22;8011;51.650;7.240;2022-11-06T21:32:29;10.80;99.90
15821;DHT22;8011;51.650;7.240;2022-11-06T21:34:57;10.80;99.90
15821;DHT22;8011;51.650;7.240;2022-11-06T21:37:23;10.80;99.90
15821;DHT22;8011;51.650;7.240;2022-11-06T21:39:57;10.80;99.90
15821;DHT22;8011;51.650;7.240;2022-11-06T21:42:24;10.80;99.90
15821;DHT22;8011;51.650;7.240;2022-11-06T21:44:50;10.90;99.90
15821;DHT22;8011;51.650;7.240;2022-11-06T21:47:16;10.90;99.90
15821;DHT22;8011;51.650;7.240;2022-11-06T21:49:41;10.90;99.90
15821;DHT22;8011;51.650;7.240;2022-11-06T21:52:19;10.90;99.90
15821;DHT22;8011;51.650;7.240;2022-11-06T21:55:05;10.90;99.90
15821;DHT22;8011;51.650;7.240;2022-11-06T21:57:49;10.90;99.90
15821;DHT22;8011;51.650;7.240;2022-11-06T22:00:15;10.90;99.90